Time;durP1;ratioP1;P1;durP2;ratioP2;P2;SDS_P1;SDS_P2;PMS_P1;PMS_P2;Temp;Humidity;BMP_temperature;BMP_pressure;BME280_temperature;BME280_humidity;BME280_pressure;Samples;Min_cycle;Max_cycle;Signal;HPM_P1;HPM_P2
2021/04/17 00:02:11;;;;;;;3.98;3.67;;;;;;;8.35;78.06;99430.05;1784515;78;21593;-67
2021/04/17 00:04:39;;;;;;;5.30;4.33;;;;;;;8.28;78.10;99430.33;1781100;78;21620;-68
2021/04/17 00:07:11;;;;;;;4.85;4.35;;;;;;;8.18;78.02;99432.44;1772877;78;21678;-67
2021/04/17 00:09:39;;;;;;;4.37;3.98;;;;;;;8.10;78.06;99430.53;1753052;80;22049;-66
2021/04/17 00:12:16;;;;;;;4.47;3.95;;;;;;;8.06;78.16;99441.59;1778945;78;21640;-67
2021/04/17 00:14:46;;;;;;;4.58;4.17;;;;;;;8.10;78.36;99437.95;1783491;78;21564;-67
2021/04/17 00:17:15;;;;;;;4.37;4.08;;;;;;;8.13;78.08;99439.60;1782750;79;21634;-67
2021/04/17 00:19:58;;;;;;;4.70;4.30;;;;;;;8.06;77.93;99440.29;1790118;78;21639;-65
2021/04/17 00:22:26;;;;;;;4.92;4.53;;;;;;;8.05;77.94;99442.95;1766986;78;21532;-65
2021/04/17 00:24:53;;;;;;;5.45;4.22;;;;;;;7.99;77.66;99444.03;1763252;79;24670;-67
2021/04/17 00:27:21;;;;;;;;;;;;;;;7.92;77.96;99434.67;1757958;79;21691;-67
2021/04/17 00:29:50;;;;;;;5.03;4.60;;;;;;;7.98;78.03;99431.84;1757751;79;21031;-66
2021/04/17 00:32:18;;;;;;;5.65;5.15;;;;;;;7.87;77.93;99429.59;1763678;78;21598;-66
2021/04/17 00:34:47;;;;;;;5.37;4.92;;;;;;;7.80;78.11;99428.12;1760321;78;21919;-66
2021/04/17 00:37:15;;;;;;;5.22;4.83;;;;;;;7.75;78.23;99434.80;1758614;79;21201;-66
2021/04/17 00:39:45;;;;;;;5.85;5.25;;;;;;;7.74;78.44;99439.66;1762577;80;21630;-66
2021/04/17 00:42:13;;;;;;;5.28;4.87;;;;;;;7.76;78.47;99436.95;1757232;78;21674;-69
2021/04/17 00:44:41;;;;;;;5.30;4.90;;;;;;;7.70;78.47;99435.87;1760257;78;21647;-67
2021/04/17 00:47:09;;;;;;;6.17;5.67;;;;;;;7.65;78.54;99432.55;1773676;78;22098;-66
2021/04/17 00:49:39;;;;;;;6.20;5.60;;;;;;;7.58;78.68;99437.15;1765382;78;21150;-65
2021/04/17 00:52:09;;;;;;;6.25;5.75;;;;;;;7.56;78.95;99437.66;1767488;78;21541;-66
2021/04/17 00:54:37;;;;;;;7.22;6.62;;;;;;;7.61;78.99;99446.22;1761919;78;21493;-64
2021/04/17 00:57:06;;;;;;;7.12;6.53;;;;;;;7.40;78.83;99413.33;1772631;78;21639;-66
2021/04/17 00:59:34;;;;;;;8.08;7.33;;;;;;;7.48;78.94;99447.08;1767204;78;22103;-66
2021/04/17 01:02:02;;;;;;;8.18;7.28;;;;;;;7.46;78.83;99447.58;1763022;80;21173;-69
2021/04/17 01:04:37;;;;;;;8.28;7.47;;;;;;;7.41;79.17;99452.09;1755089;78;21675;-65
2021/04/17 01:07:26;;;;;;;8.20;7.50;;;;;;;7.46;79.02;99449.31;1773003;78;21618;-66
2021/04/17 01:10:12;;;;;;;8.60;7.72;;;;;;;7.43;79.06;99447.67;1753093;80;21603;-67
2021/04/17 01:12:43;;;;;;;7.70;6.78;;;;;;;7.39;79.01;99449.98;1773312;78;22069;-65
2021/04/17 01:15:14;;;;;;;8.60;7.90;;;;;;;7.31;78.94;99448.94;1761420;78;21550;-65
2021/04/17 01:17:44;;;;;;;8.48;7.65;;;;;;;7.28;79.22;99452.09;1763258;78;21555;-66
2021/04/17 01:20:26;;;;;;;9.20;8.13;;;;;;;7.34;79.32;99455.36;1765501;78;22162;-64
2021/04/17 01:23:26;;;;;;;9.23;8.40;;;;;;;7.24;79.56;99455.27;1772695;78;21560;-68
2021/04/17 01:26:03;;;;;;;9.78;8.88;;;;;;;7.16;79.79;99456.82;1763068;78;21976;-70
2021/04/17 01:28:35;;;;;;;9.98;8.95;;;;;;;7.14;79.68;99458.63;1767312;78;21607;-69
2021/04/17 01:31:06;;;;;;;9.80;8.95;;;;;;;7.20;79.86;99457.12;1745104;78;21181;-68
2021/04/17 01:33:37;;;;;;;11.15;10.25;;;;;;;7.23;79.70;99461.84;1764192;79;21477;-68
2021/04/17 01:36:07;;;;;;;11.12;10.13;;;;;;;7.24;79.60;99460.95;1762836;78;21662;-67
2021/04/17 01:38:46;;;;;;;10.23;9.33;;;;;;;7.25;79.51;99463.95;1760549;77;22102;-68
2021/04/17 01:41:15;;;;;;;;;;;;;;;7.24;79.49;99467.49;1762092;78;21579;-68
2021/04/17 01:43:47;;;;;;;11.15;9.73;;;;;;;7.30;79.43;99468.59;1769740;78;20574;-69
2021/04/17 01:46:18;;;;;;;10.30;9.33;;;;;;;7.35;79.32;99471.92;1764593;78;21622;-68
2021/04/17 01:48:46;;;;;;;10.43;9.53;;;;;;;7.34;79.20;99471.05;1756597;78;21177;-67
2021/04/17 01:51:15;;;;;;;11.48;10.48;;;;;;;7.34;79.19;99476.73;1763395;78;21867;-68
2021/04/17 01:53:43;;;;;;;14.78;10.40;;;;;;;7.32;79.15;99470.24;1768096;78;21630;-68
2021/04/17 01:56:11;;;;;;;12.28;11.18;;;;;;;7.33;79.33;99476.35;1750220;80;21646;-68
2021/04/17 01:58:41;;;;;;;12.07;11.03;;;;;;;7.44;79.17;99476.86;1758678;78;21669;-70
2021/04/17 02:01:09;;;;;;;12.05;11.03;;;;;;;7.41;78.88;99476.95;1766429;78;21236;-69
2021/04/17 02:03:37;;;;;;;11.12;10.28;;;;;;;7.39;78.81;99475.69;1714586;81;22156;-69
2021/04/17 02:06:05;;;;;;;11.35;10.35;;;;;;;7.32;78.88;99480.70;1773449;78;25714;-68
2021/04/17 02:08:35;;;;;;;11.57;10.58;;;;;;;7.28;78.75;99479.09;1772366;80;21572;-68
2021/04/17 02:11:04;;;;;;;11.22;10.23;;;;;;;7.33;78.89;99478.97;1766080;78;21663;-68
2021/04/17 02:13:35;;;;;;;10.60;9.68;;;;;;;7.38;78.62;99483.15;1757967;78;21551;-68
2021/04/17 02:16:13;;;;;;;10.75;9.75;;;;;;;7.27;78.37;99476.52;1763510;78;22876;-67
2021/04/17 02:19:05;;;;;;;11.12;10.20;;;;;;;7.16;78.57;99480.35;1754781;78;21695;-68
2021/04/17 02:21:38;;;;;;;10.10;9.30;;;;;;;7.02;78.83;99479.91;1766803;79;21689;-67
2021/04/17 02:24:08;;;;;;;9.70;8.85;;;;;;;7.00;78.97;99489.56;1754556;78;21598;-67
2021/04/17 02:26:37;;;;;;;10.78;9.88;;;;;;;6.95;79.10;99485.80;1760383;78;21730;-67
2021/04/17 02:29:05;;;;;;;10.38;9.48;;;;;;;6.85;79.38;99486.95;1767201;79;22018;-67
2021/04/17 02:31:35;;;;;;;10.85;9.85;;;;;;;6.74;79.93;99486.00;1755639;78;21646;-67
2021/04/17 02:34:03;;;;;;;10.18;9.38;;;;;;;6.75;79.89;99490.30;1766041;78;21079;-66
2021/04/17 02:36:33;;;;;;;10.32;9.25;;;;;;;6.83;79.86;99494.84;1774723;78;21537;-68
2021/04/17 02:39:01;;;;;;;9.28;8.58;;;;;;;6.93;79.54;99495.88;1768323;78;21580;-67
2021/04/17 02:42:25;;;;;;;10.35;9.55;;;;;;;6.89;79.61;99501.64;1745429;79;22568;-67
2021/04/17 02:44:53;;;;;;;10.98;9.88;;;;;;;6.81;79.34;99504.48;1723245;80;21573;-67
2021/04/17 02:47:20;;;;;;;;;;;;;;;6.79;79.34;99501.52;1722684;80;22313;-67
2021/04/17 02:49:49;;;;;;;9.73;8.93;;;;;;;6.86;79.28;99508.75;1708398;82;20579;-67
2021/04/17 02:52:16;;;;;;;9.28;8.48;;;;;;;6.93;79.36;99511.13;1707190;82;21217;-67
2021/04/17 02:54:46;;;;;;;11.18;10.18;;;;;;;6.92;79.11;99518.55;1716459;80;21576;-68
2021/04/17 02:57:13;;;;;;;9.90;9.10;;;;;;;6.93;78.93;99517.66;1721580;80;21666;-67
2021/04/17 02:59:42;;;;;;;9.53;8.73;;;;;;;6.91;78.87;99525.12;1715877;82;22435;-72
2021/04/17 03:02:10;;;;;;;8.93;8.23;;;;;;;6.82;79.03;99523.20;1713488;81;21678;-68
2021/04/17 03:04:38;;;;;;;9.85;8.88;;;;;;;6.88;79.17;99528.70;1711116;82;21274;-67
2021/04/17 03:07:05;;;;;;;9.68;8.83;;;;;;;6.95;79.11;99521.52;1727695;80;21830;-67
2021/04/17 03:09:34;;;;;;;10.03;9.20;;;;;;;6.99;79.08;99524.47;1717371;80;21687;-67
2021/04/17 03:12:03;;;;;;;9.48;8.58;;;;;;;7.01;79.06;99533.96;1722720;80;21992;-69
2021/04/17 03:14:32;;;;;;;9.40;8.53;;;;;;;7.06;78.80;99535.12;1725874;82;21671;-72
2021/04/17 03:17:01;;;;;;;8.70;7.97;;;;;;;7.12;78.89;99531.03;1712123;82;28837;-67
2021/04/17 03:19:29;;;;;;;8.90;8.20;;;;;;;7.30;78.65;99541.36;1709695;82;21588;-68
2021/04/17 03:21:57;;;;;;;8.95;8.33;;;;;;;7.35;78.32;99534.23;1717057;82;21628;-68
2021/04/17 03:24:25;;;;;;;9.18;8.40;;;;;;;7.32;78.22;99547.40;1721399;80;22504;-68
2021/04/17 03:26:53;;;;;;;9.23;7.15;;;;;;;7.29;78.26;99546.20;1714343;80;21623;-68
2021/04/17 03:29:21;;;;;;;7.28;6.50;;;;;;;7.25;77.91;99548.95;1714839;82;21659;-68
2021/04/17 03:31:48;;;;;;;6.95;6.45;;;;;;;7.24;77.87;99549.87;1713959;80;21591;-68
2021/04/17 03:34:16;;;;;;;;;;;;;;;7.23;77.81;99552.91;1720068;80;21654;-68
2021/04/17 03:36:44;;;;;;;;;;;;;;;7.15;78.07;99554.45;1719253;80;20951;-69
2021/04/17 03:39:12;;;;;;;6.00;5.55;;;;;;;7.07;78.17;99557.77;1718203;80;20314;-68
2021/04/17 03:41:40;;;;;;;6.12;5.62;;;;;;;6.93;78.63;99553.38;1709210;82;21213;-68
2021/04/17 03:44:08;;;;;;;5.87;5.47;;;;;;;6.79;79.21;99560.33;1707117;80;21663;-64
2021/04/17 03:46:37;;;;;;;5.87;5.47;;;;;;;6.86;79.00;99567.09;1722431;82;21699;-64
2021/04/17 03:49:05;;;;;;;5.45;5.05;;;;;;;6.94;78.68;99565.10;1717844;80;22133;-71
2021/04/17 03:51:34;;;;;;;6.22;5.72;;;;;;;6.91;78.57;99570.44;1714376;80;21663;-69
2021/04/17 03:54:02;;;;;;;;;;;;;;;6.89;78.42;99574.83;1727428;80;21592;-68
2021/04/17 03:56:29;;;;;;;;;;;;;;;6.87;78.53;99575.78;1719359;80;20496;-67
2021/04/17 03:59:00;;;;;;;5.55;5.15;;;;;;;6.86;78.39;99579.31;1714474;82;20487;-67
2021/04/17 04:01:27;;;;;;;5.95;5.55;;;;;;;6.88;78.57;99581.43;1712153;80;22433;-68
2021/04/17 04:03:57;;;;;;;5.70;5.20;;;;;;;6.98;78.43;99590.25;1713315;80;21194;-67
2021/04/17 04:06:26;;;;;;;5.95;5.42;;;;;;;6.91;78.54;99587.86;1719281;82;21671;-68
2021/04/17 04:08:55;;;;;;;5.53;5.05;;;;;;;6.94;78.45;99589.94;1711717;82;21577;-66
2021/04/17 04:11:23;;;;;;;;;;;;;;;6.99;78.32;99593.28;1718696;80;21715;-67
2021/04/17 04:13:51;;;;;;;5.58;5.17;;;;;;;7.04;78.01;99600.98;1716105;82;22526;-67
2021/04/17 04:16:19;;;;;;;5.20;4.72;;;;;;;7.08;78.08;99606.97;1718677;80;21679;-68
2021/04/17 04:18:47;;;;;;;4.92;4.53;;;;;;;6.96;77.83;99603.81;1714246;80;21631;-71
2021/04/17 04:21:15;;;;;;;5.45;5.05;;;;;;;6.89;77.89;99610.11;1719977;82;21620;-70
2021/04/17 04:23:44;;;;;;;5.37;4.80;;;;;;;6.88;78.47;99609.72;1717482;80;21595;-70
2021/04/17 04:26:12;;;;;;;5.12;4.72;;;;;;;6.73;78.88;99610.16;1714086;80;21899;-71
2021/04/17 04:28:40;;;;;;;6.60;5.30;;;;;;;6.69;78.52;99611.14;1725700;80;21134;-69
2021/04/17 04:31:07;;;;;;;;;;;;;;;6.81;78.44;99618.63;1726124;80;21536;-69
2021/04/17 04:33:36;;;;;;;6.53;4.92;;;;;;;6.80;78.24;99619.55;1708720;82;20571;-71
2021/04/17 04:36:05;;;;;;;5.42;5.03;;;;;;;6.74;78.27;99621.00;1719197;81;21567;-70
2021/04/17 04:38:34;;;;;;;5.95;4.53;;;;;;;6.70;78.28;99621.53;1716847;80;22019;-66
2021/04/17 04:41:04;;;;;;;5.33;4.87;;;;;;;6.73;78.24;99620.61;1715582;80;21493;-70
2021/04/17 04:43:32;;;;;;;4.87;4.47;;;;;;;6.76;78.70;99623.12;1718534;80;21147;-68
2021/04/17 04:46:00;;;;;;;5.40;5.00;;;;;;;6.78;78.55;99623.50;1712306;80;21643;-69
2021/04/17 04:48:28;;;;;;;5.12;4.72;;;;;;;6.81;78.67;99627.77;1714638;82;21198;-69
2021/04/17 04:50:56;;;;;;;5.58;5.12;;;;;;;6.81;78.60;99627.77;1716865;82;21604;-67
2021/04/17 04:53:24;;;;;;;5.12;4.72;;;;;;;6.86;78.54;99630.28;1718514;82;21639;-70
2021/04/17 04:55:53;;;;;;;4.90;4.60;;;;;;;6.98;78.46;99634.69;1714461;80;21652;-64
2021/04/17 04:58:21;;;;;;;5.45;4.78;;;;;;;7.12;78.20;99635.63;1713919;82;21703;-65
2021/04/17 05:00:48;;;;;;;5.10;4.70;;;;;;;7.13;77.77;99640.39;1711888;80;21672;-63
2021/04/17 05:03:16;;;;;;;5.30;4.90;;;;;;;7.08;77.31;99639.66;1723030;80;22014;-63
2021/04/17 05:05:45;;;;;;;5.03;4.62;;;;;;;7.01;77.56;99642.45;1721191;80;21636;-66
2021/04/17 05:08:13;;;;;;;5.55;4.65;;;;;;;7.02;77.72;99642.00;1710658;80;21596;-62
2021/04/17 05:10:43;;;;;;;5.40;5.00;;;;;;;7.05;77.84;99643.69;1706108;82;22805;-61
2021/04/17 05:13:10;;;;;;;5.47;4.97;;;;;;;7.19;77.71;99649.36;1713427;82;21639;-63
2021/04/17 05:15:38;;;;;;;5.35;4.85;;;;;;;7.14;77.23;99653.42;1715162;80;22043;-68
2021/04/17 05:18:06;;;;;;;5.83;5.42;;;;;;;7.11;77.46;99653.50;1718207;80;21623;-64
2021/04/17 05:20:34;;;;;;;5.50;5.05;;;;;;;7.18;77.69;99648.97;1715607;80;21616;-64
2021/04/17 05:23:02;;;;;;;5.10;4.70;;;;;;;7.29;77.67;99655.17;1715528;80;21592;-66
2021/04/17 05:25:30;;;;;;;5.60;4.53;;;;;;;7.45;77.36;99649.91;1712454;82;21587;-62
2021/04/17 05:27:57;;;;;;;;;;;;;;;7.54;77.28;99656.63;1715042;82;22069;-68
2021/04/17 05:30:25;;;;;;;5.60;4.87;;;;;;;7.51;76.80;99658.02;1712436;80;20553;-64
2021/04/17 05:32:53;;;;;;;5.33;4.92;;;;;;;7.46;76.87;99656.86;1714755;80;21919;-67
2021/04/17 05:35:20;;;;;;;6.12;5.50;;;;;;;7.44;76.75;99667.83;1716004;80;21650;-69
2021/04/17 05:37:48;;;;;;;5.83;5.33;;;;;;;7.40;76.80;99667.06;1717554;80;26296;-68
2021/04/17 05:40:16;;;;;;;5.17;4.78;;;;;;;7.48;76.77;99668.56;1711992;80;22164;-69
2021/04/17 05:42:46;;;;;;;4.92;4.53;;;;;;;7.44;76.61;99669.14;1707715;81;21612;-68
2021/04/17 05:45:13;;;;;;;5.58;5.08;;;;;;;7.41;76.52;99673.14;1701728;82;21608;-65
2021/04/17 05:47:42;;;;;;;5.80;5.03;;;;;;;7.38;76.44;99673.22;1698483;81;21628;-61
2021/04/17 05:50:10;;;;;;;5.37;4.90;;;;;;;7.25;76.48;99675.78;1702885;81;22395;-62
2021/04/17 05:52:38;;;;;;;4.67;4.37;;;;;;;7.18;76.69;99679.89;1694236;81;22080;-62
2021/04/17 05:55:07;;;;;;;4.95;4.03;;;;;;;7.24;77.00;99679.31;1698245;82;21604;-66
2021/04/17 05:57:35;;;;;;;5.58;5.10;;;;;;;7.37;76.90;99686.75;1701631;81;21616;-60
2021/04/17 06:00:06;;;;;;;5.33;4.72;;;;;;;7.33;76.61;99687.75;1709893;81;21629;-67
2021/04/17 06:02:34;;;;;;;6.72;4.85;;;;;;;7.24;77.08;99693.24;1700929;82;21708;-70
2021/04/17 06:05:02;;;;;;;;;;;;;;;7.26;77.22;99692.75;1710813;81;22036;-66
2021/04/17 06:07:31;;;;;;;4.70;4.30;;;;;;;7.30;77.45;99702.67;1696784;81;20677;-66
2021/04/17 06:09:59;;;;;;;4.53;4.12;;;;;;;7.30;77.20;99700.06;1713721;81;21636;-65
2021/04/17 06:12:27;;;;;;;3.80;3.50;;;;;;;7.39;77.18;99696.72;1703203;81;21668;-65
2021/04/17 06:14:57;;;;;;;3.47;3.17;;;;;;;7.37;76.87;99698.98;1715577;81;21778;-62
2021/04/17 06:29:56;;;;;;;3.22;2.92;;;;;;;7.27;76.38;99716.70;1700602;82;21624;-67
2021/04/17 06:36:04;;;;;;;3.92;3.62;;;;;;;7.31;75.89;99718.33;1698165;81;21150;-68
2021/04/17 06:38:32;;;;;;;3.70;3.33;;;;;;;7.37;75.80;99723.84;1716725;81;21215;-68
2021/04/17 06:41:02;;;;;;;3.42;3.22;;;;;;;7.36;75.95;99720.80;1694732;82;21616;-68
2021/04/17 06:43:54;;;;;;;3.27;2.98;;;;;;;7.41;76.14;99721.08;1701992;81;21580;-66
2021/04/17 06:46:51;;;;;;;3.33;3.05;;;;;;;7.49;76.23;99718.70;1714353;81;21719;-68
2021/04/17 06:49:19;;;;;;;;;;;;;;;7.66;75.95;99720.36;1711599;81;22164;-68
2021/04/17 06:51:48;;;;;;;3.77;3.47;;;;;;;7.77;76.13;99718.73;1701563;82;20536;-67
2021/04/17 06:54:20;;;;;;;3.35;3.05;;;;;;;7.80;75.44;99721.28;1707740;82;21270;-68
2021/04/17 06:56:49;;;;;;;3.20;3.00;;;;;;;7.94;75.37;99716.92;1709194;81;21700;-67
2021/04/17 06:59:17;;;;;;;3.30;2.98;;;;;;;8.12;75.68;99724.20;1669359;83;21719;-66
2021/04/17 07:01:46;;;;;;;3.70;3.40;;;;;;;8.23;75.26;99723.88;1656867;83;21612;-66
2021/04/17 07:04:14;;;;;;;3.00;2.80;;;;;;;8.30;75.44;99728.45;1658063;83;21572;-65
2021/04/17 07:06:43;;;;;;;3.60;3.40;;;;;;;8.29;74.53;99726.75;1670545;83;21622;-66
2021/04/17 07:09:10;;;;;;;4.72;3.40;;;;;;;8.27;74.27;99729.42;1673381;83;21688;-64
2021/04/17 07:11:39;;;;;;;3.20;3.00;;;;;;;8.25;73.92;99732.55;1660582;83;21242;-66
2021/04/17 07:14:12;;;;;;;;;;;;;;;8.32;73.97;99739.73;1662532;84;22276;-64
2021/04/17 07:17:03;;;;;;;3.45;3.10;;;;;;;8.42;73.29;99736.39;1664238;83;20537;-66
2021/04/17 07:19:51;;;;;;;6.35;5.75;;;;;;;8.41;73.30;99739.91;1709903;82;21470;-64
2021/04/17 07:22:31;;;;;;;3.77;3.27;;;;;;;8.44;73.02;99739.81;1706846;81;21643;-65
2021/04/17 07:25:09;;;;;;;3.45;3.17;;;;;;;8.45;73.01;99740.23;1696512;82;21628;-65
2021/04/17 07:27:50;;;;;;;3.35;3.15;;;;;;;8.44;72.78;99744.63;1702488;81;21893;-65
2021/04/17 07:30:25;;;;;;;3.12;2.92;;;;;;;8.42;72.70;99742.94;1702552;81;21609;-67
2021/04/17 07:33:18;;;;;;;3.80;3.45;;;;;;;8.55;72.84;99739.02;1699782;81;21127;-62
2021/04/17 07:35:49;;;;;;;7.90;7.12;;;;;;;8.69;72.78;99742.05;1699990;82;21914;-65
2021/04/17 07:38:21;;;;;;;4.22;3.92;;;;;;;8.74;72.41;99749.77;1678836;82;22374;-67
2021/04/17 07:41:06;;;;;;;4.12;3.80;;;;;;;8.61;72.32;99720.91;1696507;82;21590;-67
2021/04/17 07:44:04;;;;;;;3.65;3.35;;;;;;;8.82;72.52;99749.52;1706152;82;21571;-66
2021/04/17 07:46:42;;;;;;;3.52;3.27;;;;;;;8.90;72.51;99748.31;1720651;80;21111;-68
2021/04/17 07:49:19;;;;;;;3.50;3.25;;;;;;;9.00;71.78;99751.47;1715973;80;21291;-66
2021/04/17 07:52:10;;;;;;;3.83;3.50;;;;;;;9.13;71.88;99750.59;1707821;82;22623;-67
2021/04/17 07:54:51;;;;;;;3.35;3.05;;;;;;;9.18;71.62;99750.45;1713701;80;22042;-60
2021/04/17 07:57:19;;;;;;;10.85;6.92;;;;;;;9.24;71.48;99749.77;1694596;82;21632;-63
2021/04/17 07:59:47;;;;;;;4.58;4.17;;;;;;;9.35;71.50;99756.80;1722950;80;21508;-69
2021/04/17 08:02:17;;;;;;;4.53;4.17;;;;;;;9.38;71.01;99749.29;1709714;80;21499;-64
2021/04/17 08:04:45;;;;;;;4.85;3.95;;;;;;;9.31;70.64;99734.20;1713412;80;21639;-65
2021/04/17 08:07:13;;;;;;;;;;;;;;;9.51;70.52;99758.43;1694119;81;22000;-65
2021/04/17 08:09:41;;;;;;;;;;;;;;;9.55;69.77;99759.17;1715633;80;20492;-67
2021/04/17 08:12:11;;;;;;;4.70;4.30;;;;;;;9.58;69.81;99755.10;1713452;82;20247;-65
2021/04/17 08:14:39;;;;;;;6.00;5.50;;;;;;;9.59;70.07;99758.58;1722116;80;21660;-65
2021/04/17 08:17:07;;;;;;;4.10;3.77;;;;;;;9.64;69.76;99760.58;1719388;80;22419;-67
2021/04/17 08:19:35;;;;;;;36.10;18.95;;;;;;;9.73;69.68;99759.78;1721602;80;21702;-67
2021/04/17 08:22:03;;;;;;;7.75;6.12;;;;;;;9.78;69.16;99763.56;1721272;80;21591;-67
2021/04/17 08:24:33;;;;;;;3.95;3.65;;;;;;;9.81;68.97;99766.52;1709142;82;21185;-62
2021/04/17 08:27:00;;;;;;;;;;;;;;;9.69;68.78;99761.28;1707351;82;21813;-60
2021/04/17 08:29:52;;;;;;;3.90;3.60;;;;;;;9.63;68.54;99768.92;1719002;80;20227;-58
2021/04/17 08:32:34;;;;;;;3.90;3.60;;;;;;;9.58;68.67;99771.31;1715448;80;22068;-71
2021/04/17 08:35:15;;;;;;;5.33;4.83;;;;;;;9.40;68.81;99772.83;1730466;80;21565;-69
2021/04/17 08:37:57;;;;;;;5.28;4.25;;;;;;;9.31;69.22;99773.56;1712083;80;21589;-71
2021/04/17 08:40:34;;;;;;;5.28;4.85;;;;;;;9.29;69.97;99771.92;1709320;80;21627;-69
2021/04/17 08:43:13;;;;;;;5.45;4.95;;;;;;;9.31;70.28;99772.26;1702467;80;21602;-69
2021/04/17 08:46:10;;;;;;;4.65;4.17;;;;;;;9.20;70.36;99767.84;1703720;81;22096;-68
2021/04/17 08:48:45;;;;;;;4.28;3.98;;;;;;;9.13;70.26;99772.44;1702462;82;21619;-70
2021/04/17 08:51:39;;;;;;;4.30;4.00;;;;;;;9.08;69.94;99774.81;1706228;82;21717;-69
2021/04/17 08:54:11;;;;;;;5.42;4.92;;;;;;;9.07;69.92;99777.05;1697309;81;21178;-69
2021/04/17 08:57:01;;;;;;;9.50;8.50;;;;;;;8.96;70.09;99778.26;1698034;82;21688;-73
2021/04/17 08:59:35;;;;;;;5.92;5.40;;;;;;;8.94;70.11;99773.52;1707395;82;22125;-69
2021/04/17 09:02:07;;;;;;;7.17;6.47;;;;;;;9.06;70.81;99774.02;1700993;81;21501;-70
2021/04/17 09:04:37;;;;;;;12.07;9.40;;;;;;;9.13;70.85;99772.90;1703072;81;21652;-68
2021/04/17 09:07:16;;;;;;;9.50;7.50;;;;;;;9.09;71.09;99771.30;1694194;82;21688;-68
2021/04/17 09:09:46;;;;;;;6.50;5.90;;;;;;;9.07;70.97;99779.67;1701118;81;21621;-67
2021/04/17 09:12:17;;;;;;;8.33;7.60;;;;;;;9.02;71.04;99777.19;1698460;82;22059;-66
2021/04/17 09:14:56;;;;;;;7.45;6.85;;;;;;;8.92;71.26;99777.97;1709666;81;21612;-67
2021/04/17 09:17:43;;;;;;;8.15;7.40;;;;;;;8.83;71.24;99776.11;1701424;82;21544;-65
2021/04/17 09:20:13;;;;;;;6.22;5.72;;;;;;;8.75;71.31;99783.77;1711991;82;21556;-67
2021/04/17 09:22:44;;;;;;;8.45;7.37;;;;;;;8.80;71.59;99778.83;1694879;81;21222;-67
2021/04/17 09:25:37;;;;;;;8.53;7.83;;;;;;;8.88;71.66;99779.45;1700963;82;21772;-66
2021/04/17 09:28:06;;;;;;;8.13;7.50;;;;;;;8.84;71.90;99785.24;1705051;81;21531;-66
2021/04/17 10:20:04;;;;;;;10.38;9.33;;;;;;;7.45;74.16;99817.80;1798328;77;23111;-65
2021/04/17 10:22:32;;;;;;;14.65;12.82;;;;;;;7.50;74.00;99821.16;1759507;79;21576;-66
2021/04/17 10:25:00;;;;;;;;;;;;;;;7.67;74.17;99822.84;1750183;78;22012;-61
2021/04/17 10:27:34;;;;;;;6.97;6.28;;;;;;;7.86;74.44;99824.95;1753621;80;20354;-67
2021/04/17 10:29:58;;;;;;;7.08;6.47;;;;;;;7.94;74.27;99821.65;1752236;78;21640;-67
2021/04/17 10:32:29;;;;;;;9.85;8.85;;;;;;;8.00;74.21;99829.31;1747472;79;21611;-67
2021/04/17 10:35:12;;;;;;;10.80;9.43;;;;;;;8.08;74.33;99825.16;1760733;78;21634;-67
2021/04/17 10:37:47;;;;;;;8.18;7.35;;;;;;;8.18;74.20;99826.61;1745336;78;22140;-65
2021/04/17 10:40:19;;;;;;;8.83;8.03;;;;;;;8.35;74.28;99831.34;1749906;78;21993;-66
2021/04/17 10:42:57;;;;;;;9.50;8.53;;;;;;;8.49;73.98;99838.34;1745280;80;21628;-65
2021/04/17 10:45:33;;;;;;;9.73;8.93;;;;;;;8.56;73.95;99829.84;1762715;80;21640;-65
2021/04/17 10:48:09;;;;;;;10.68;9.68;;;;;;;8.63;73.84;99839.70;1743839;79;21486;-66
2021/04/17 10:50:53;;;;;;;12.58;11.38;;;;;;;8.62;73.63;99839.28;1751666;78;22061;-65
2021/04/17 10:53:33;;;;;;;11.38;10.28;;;;;;;8.61;73.58;99839.74;1760180;79;21654;-65
2021/04/17 10:56:12;;;;;;;10.08;9.00;;;;;;;8.67;73.96;99840.84;1743635;78;21647;-65
2021/04/17 10:58:41;;;;;;;12.05;10.70;;;;;;;8.73;73.80;99843.27;1752723;78;21666;-66
2021/04/17 11:01:18;;;;;;;12.30;11.00;;;;;;;8.75;73.97;99845.84;1763505;79;21656;-65
2021/04/17 11:03:48;;;;;;;12.28;11.05;;;;;;;8.79;74.39;99844.83;1759113;78;22473;-67
2021/04/17 11:06:18;;;;;;;12.23;10.48;;;;;;;8.79;74.25;99854.01;1755692;79;21671;-67
2021/04/17 11:08:47;;;;;;;12.70;10.85;;;;;;;8.91;74.42;99847.50;1758741;78;21678;-66
2021/04/17 11:11:21;;;;;;;12.40;11.20;;;;;;;9.08;74.26;99842.58;1751017;78;21583;-66
2021/04/17 11:14:00;;;;;;;13.05;11.78;;;;;;;9.11;74.07;99850.33;1751028;78;21631;-64
2021/04/17 11:16:42;;;;;;;13.98;11.97;;;;;;;9.14;73.88;99849.39;1748953;78;22043;-67
2021/04/17 11:19:34;;;;;;;13.65;12.30;;;;;;;9.07;74.36;99853.12;1741342;78;21139;-64
2021/04/17 11:22:14;;;;;;;12.37;11.05;;;;;;;9.00;74.07;99856.38;1745641;79;21580;-65
2021/04/17 11:27:40;;;;;;;10.50;9.55;;;;;;;9.27;74.10;99859.02;1852678;75;23415;-65
2021/04/17 11:30:10;;;;;;;10.95;9.93;;;;;;;9.27;74.04;99862.49;1834751;77;21205;-63
2021/04/17 11:32:38;;;;;;;11.20;9.68;;;;;;;9.35;73.62;99863.08;1763544;80;22025;-63
2021/04/17 11:35:09;;;;;;;11.43;10.43;;;;;;;9.39;73.43;99857.27;1803968;78;21505;-65
2021/04/17 11:37:37;;;;;;;9.73;8.85;;;;;;;9.38;73.66;99859.51;1771463;78;21602;-66
2021/04/17 11:40:08;;;;;;;9.40;8.50;;;;;;;9.48;73.55;99860.04;1759133;79;21584;-65
2021/04/17 11:42:37;;;;;;;9.58;8.78;;;;;;;9.60;72.94;99859.59;1788123;78;21499;-65
2021/04/17 11:45:06;;;;;;;9.35;7.90;;;;;;;9.60;72.19;99853.50;1764163;79;21897;-66
2021/04/17 11:47:37;;;;;;;10.82;9.70;;;;;;;9.57;71.68;99853.59;1764931;79;21753;-65
2021/04/17 11:50:06;;;;;;;10.78;9.70;;;;;;;9.57;71.78;99857.09;1770452;80;21559;-65
2021/04/17 11:52:34;;;;;;;10.43;9.43;;;;;;;9.56;71.64;99852.74;1786853;78;21611;-66
2021/04/17 11:55:04;;;;;;;10.25;9.25;;;;;;;9.60;72.06;99852.19;1796264;78;21567;-66
2021/04/17 11:57:32;;;;;;;9.60;8.70;;;;;;;9.63;71.87;99856.87;1774222;79;22341;-64
2021/04/17 12:00:02;;;;;;;10.03;9.08;;;;;;;9.73;71.75;99857.39;1787832;78;21147;-66
2021/04/17 12:02:32;;;;;;;9.13;8.23;;;;;;;9.73;71.39;99856.08;1788055;78;21591;-66
2021/04/17 12:05:02;;;;;;;10.63;9.48;;;;;;;9.74;71.30;99862.59;1783253;78;21640;-66
2021/04/17 12:07:30;;;;;;;10.70;9.70;;;;;;;9.68;71.29;99857.58;1774458;79;21599;-67
2021/04/17 12:10:00;;;;;;;11.68;8.03;;;;;;;9.57;71.36;99862.34;1793047;78;21703;-66
2021/04/17 12:12:28;;;;;;;;;;;;;;;9.57;70.70;99864.09;1794731;78;21639;-67
2021/04/17 12:14:56;;;;;;;11.30;10.10;;;;;;;9.51;70.51;99865.16;1799646;78;20669;-67
2021/04/17 12:17:24;;;;;;;;;;;;;;;9.50;70.99;99862.16;1793412;78;21594;-67
2021/04/17 12:19:51;;;;;;;;;;;;;;;9.57;70.88;99864.97;1796374;78;20259;-66
2021/04/17 12:22:19;;;;;;;;;;;;;;;9.68;71.02;99865.45;1793551;78;21882;-67
2021/04/17 12:24:47;;;;;;;7.15;6.53;;;;;;;9.69;70.68;99872.86;1784979;78;20575;-66
2021/04/17 12:27:16;;;;;;;9.00;8.10;;;;;;;9.59;70.26;99872.77;1793064;78;21654;-66
2021/04/17 12:29:44;;;;;;;;;;;;;;;9.49;70.23;99870.92;1788772;78;22057;-68
2021/04/17 12:32:12;;;;;;;;;;;;;;;9.35;70.27;99873.57;1788852;79;20497;-68
2021/04/17 12:34:40;;;;;;;10.70;8.98;;;;;;;9.24;70.35;99874.85;1773177;79;22160;-69
2021/04/17 12:37:08;;;;;;;10.00;8.93;;;;;;;9.10;70.24;99870.92;1772739;79;21588;-67
2021/04/17 12:39:36;;;;;;;9.30;8.13;;;;;;;9.02;70.61;99883.88;1767185;79;21634;-68
2021/04/17 12:42:05;;;;;;;;;;;;;;;8.99;70.70;99876.12;1750096;79;21698;-67
2021/04/17 12:44:33;;;;;;;8.75;7.00;;;;;;;8.99;70.51;99882.22;1777181;79;20282;-67
2021/04/17 12:47:02;;;;;;;8.58;7.72;;;;;;;9.06;70.52;99877.19;1771235;79;21892;-67
2021/04/17 12:49:31;;;;;;;11.15;8.18;;;;;;;9.08;70.52;99875.80;1779237;79;21917;-66
2021/04/17 12:51:59;;;;;;;7.85;7.05;;;;;;;9.07;70.36;99879.34;1786917;79;21636;-66
2021/04/17 12:54:26;;;;;;;;;;;;;;;9.06;70.26;99878.50;1784826;79;21638;-67
2021/04/17 12:56:55;;;;;;;19.70;14.00;;;;;;;9.06;70.26;99877.62;1778789;79;20270;-67
2021/04/17 12:59:22;;;;;;;22.93;15.95;;;;;;;9.02;70.65;99883.88;1776550;79;21617;-67
2021/04/17 13:01:50;;;;;;;16.27;12.18;;;;;;;8.91;71.13;99879.85;1776987;79;21629;-67
2021/04/17 13:04:18;;;;;;;;;;;;;;;8.94;71.57;99884.98;1781345;79;21626;-68
2021/04/17 13:06:46;;;;;;;;;;;;;;;9.11;71.10;99884.89;1763545;79;20317;-69
2021/04/17 13:09:13;;;;;;;10.45;8.48;;;;;;;9.07;70.70;99892.46;1766844;79;27300;-69
2021/04/17 13:11:43;;;;;;;10.85;9.73;;;;;;;9.07;70.59;99893.77;1775454;79;22125;-66
2021/04/17 13:14:10;;;;;;;12.50;9.98;;;;;;;9.08;70.30;99889.80;1769949;79;25681;-69